sensor_id;sensor_type;location;lat;lon;timestamp;P1;durP1;ratioP1;P2;durP2;ratioP2
10293;SDS011;5192;50.328;7.610;2024-03-08T00:02:12;21.50;;;14.57;;
10293;SDS011;5192;50.328;7.610;2024-03-08T00:04:40;20.93;;;14.93;;
10293;SDS011;5192;50.328;7.610;2024-03-08T00:07:08;22.10;;;15.80;;
10293;SDS011;5192;50.328;7.610;2024-03-08T00:09:40;21.90;;;14.13;;
10293;SDS011;5192;50.328;7.610;2024-03-08T00:12:07;20.83;;;14.50;;
10293;SDS011;5192;50.328;7.610;2024-03-08T00:14:36;23.63;;;15.63;;
10293;SDS011;5192;50.328;7.610;2024-03-08T00:17:06;24.30;;;15.27;;
10293;SDS011;5192;50.328;7.610;2024-03-08T00:19:40;22.83;;;13.90;;
10293;SDS011;5192;50.328;7.610;2024-03-08T00:22:09;22.07;;;14.07;;
10293;SDS011;5192;50.328;7.610;2024-03-08T00:24:38;23.03;;;14.63;;
10293;SDS011;5192;50.328;7.610;2024-03-08T00:27:06;19.67;;;13.67;;
10293;SDS011;5192;50.328;7.610;2024-03-08T00:29:35;22.97;;;15.27;;
10293;SDS011;5192;50.328;7.610;2024-03-08T00:32:04;20.83;;;13.33;;
10293;SDS011;5192;50.328;7.610;2024-03-08T00:34:37;22.47;;;14.63;;
10293;SDS011;5192;50.328;7.610;2024-03-08T00:37:04;21.27;;;14.50;;
10293;SDS011;5192;50.328;7.610;2024-03-08T00:39:31;24.27;;;15.30;;
10293;SDS011;5192;50.328;7.610;2024-03-08T00:42:00;20.83;;;14.33;;
10293;SDS011;5192;50.328;7.610;2024-03-08T00:44:27;22.60;;;15.13;;
10293;SDS011;5192;50.328;7.610;2024-03-08T00:46:54;21.93;;;13.97;;
10293;SDS011;5192;50.328;7.610;2024-03-08T00:49:24;20.83;;;14.83;;
10293;SDS011;5192;50.328;7.610;2024-03-08T00:51:51;19.43;;;13.67;;
10293;SDS011;5192;50.328;7.610;2024-03-08T00:54:19;23.97;;;14.17;;
10293;SDS011;5192;50.328;7.610;2024-03-08T00:56:47;22.10;;;14.07;;
10293;SDS011;5192;50.328;7.610;2024-03-08T00:59:14;22.70;;;14.07;;
10293;SDS011;5192;50.328;7.610;2024-03-08T01:01:41;22.53;;;14.87;;
10293;SDS011;5192;50.328;7.610;2024-03-08T01:04:10;22.47;;;13.50;;
10293;SDS011;5192;50.328;7.610;2024-03-08T01:06:38;22.17;;;13.40;;
10293;SDS011;5192;50.328;7.610;2024-03-08T01:09:12;20.50;;;13.17;;
10293;SDS011;5192;50.328;7.610;2024-03-08T01:11:39;22.50;;;14.07;;
10293;SDS011;5192;50.328;7.610;2024-03-08T01:14:09;23.53;;;14.50;;
10293;SDS011;5192;50.328;7.610;2024-03-08T01:16:36;22.97;;;15.33;;
10293;SDS011;5192;50.328;7.610;2024-03-08T01:19:05;20.30;;;12.83;;
10293;SDS011;5192;50.328;7.610;2024-03-08T01:21:31;19.10;;;13.83;;
10293;SDS011;5192;50.328;7.610;2024-03-08T01:24:00;20.07;;;13.80;;
10293;SDS011;5192;50.328;7.610;2024-03-08T01:26:28;22.10;;;14.67;;
10293;SDS011;5192;50.328;7.610;2024-03-08T01:28:54;21.63;;;14.07;;
10293;SDS011;5192;50.328;7.610;2024-03-08T01:31:23;21.30;;;13.47;;
10293;SDS011;5192;50.328;7.610;2024-03-08T01:33:53;19.10;;;13.30;;
10293;SDS011;5192;50.328;7.610;2024-03-08T01:36:21;23.67;;;15.10;;
10293;SDS011;5192;50.328;7.610;2024-03-08T01:38:48;22.07;;;13.83;;
10293;SDS011;5192;50.328;7.610;2024-03-08T01:41:20;25.30;;;14.87;;
10293;SDS011;5192;50.328;7.610;2024-03-08T01:43:48;22.23;;;14.20;;
10293;SDS011;5192;50.328;7.610;2024-03-08T01:46:18;26.77;;;15.13;;
10293;SDS011;5192;50.328;7.610;2024-03-08T01:48:49;21.23;;;13.87;;
10293;SDS011;5192;50.328;7.610;2024-03-08T01:51:16;21.07;;;13.87;;
10293;SDS011;5192;50.328;7.610;2024-03-08T01:53:45;21.97;;;13.03;;
10293;SDS011;5192;50.328;7.610;2024-03-08T01:56:16;24.20;;;13.70;;
10293;SDS011;5192;50.328;7.610;2024-03-08T01:58:43;23.13;;;15.40;;
10293;SDS011;5192;50.328;7.610;2024-03-08T02:01:12;25.23;;;14.30;;
10293;SDS011;5192;50.328;7.610;2024-03-08T02:03:57;25.27;;;14.07;;
10293;SDS011;5192;50.328;7.610;2024-03-08T02:06:24;22.70;;;14.20;;
10293;SDS011;5192;50.328;7.610;2024-03-08T02:08:52;21.53;;;14.27;;
10293;SDS011;5192;50.328;7.610;2024-03-08T02:11:20;22.33;;;14.20;;
10293;SDS011;5192;50.328;7.610;2024-03-08T02:13:47;22.23;;;13.23;;
10293;SDS011;5192;50.328;7.610;2024-03-08T02:16:24;22.83;;;14.67;;
10293;SDS011;5192;50.328;7.610;2024-03-08T02:18:57;26.80;;;15.07;;
10293;SDS011;5192;50.328;7.610;2024-03-08T02:21:23;23.30;;;14.47;;
10293;SDS011;5192;50.328;7.610;2024-03-08T02:23:49;24.77;;;14.90;;
10293;SDS011;5192;50.328;7.610;2024-03-08T02:26:17;24.07;;;14.30;;
10293;SDS011;5192;50.328;7.610;2024-03-08T02:28:46;21.73;;;14.43;;
10293;SDS011;5192;50.328;7.610;2024-03-08T02:31:15;23.57;;;14.77;;
10293;SDS011;5192;50.328;7.610;2024-03-08T02:33:43;22.47;;;14.60;;
10293;SDS011;5192;50.328;7.610;2024-03-08T02:36:14;23.73;;;14.73;;
10293;SDS011;5192;50.328;7.610;2024-03-08T02:38:42;22.63;;;14.63;;
10293;SDS011;5192;50.328;7.610;2024-03-08T02:41:11;23.67;;;14.17;;
10293;SDS011;5192;50.328;7.610;2024-03-08T02:43:40;24.37;;;15.43;;
10293;SDS011;5192;50.328;7.610;2024-03-08T02:46:07;26.53;;;14.87;;
10293;SDS011;5192;50.328;7.610;2024-03-08T02:48:36;24.67;;;14.20;;
10293;SDS011;5192;50.328;7.610;2024-03-08T02:51:04;20.57;;;13.47;;
10293;SDS011;5192;50.328;7.610;2024-03-08T02:53:32;24.43;;;14.47;;
10293;SDS011;5192;50.328;7.610;2024-03-08T02:56:00;21.03;;;13.70;;
10293;SDS011;5192;50.328;7.610;2024-03-08T02:58:29;25.13;;;14.87;;
10293;SDS011;5192;50.328;7.610;2024-03-08T03:00:56;22.67;;;14.30;;
10293;SDS011;5192;50.328;7.610;2024-03-08T03:03:25;25.70;;;14.83;;
10293;SDS011;5192;50.328;7.610;2024-03-08T03:05:52;24.40;;;14.63;;
10293;SDS011;5192;50.328;7.610;2024-03-08T03:08:23;21.30;;;13.70;;
10293;SDS011;5192;50.328;7.610;2024-03-08T03:10:50;25.23;;;14.47;;
10293;SDS011;5192;50.328;7.610;2024-03-08T03:13:19;25.97;;;14.53;;
10293;SDS011;5192;50.328;7.610;2024-03-08T03:15:46;27.27;;;15.17;;
10293;SDS011;5192;50.328;7.610;2024-03-08T03:18:15;25.20;;;15.10;;
10293;SDS011;5192;50.328;7.610;2024-03-08T03:20:41;23.00;;;13.83;;
10293;SDS011;5192;50.328;7.610;2024-03-08T03:23:09;24.93;;;15.37;;
10293;SDS011;5192;50.328;7.610;2024-03-08T03:25:39;24.33;;;14.23;;
10293;SDS011;5192;50.328;7.610;2024-03-08T03:28:08;22.23;;;13.70;;
10293;SDS011;5192;50.328;7.610;2024-03-08T03:30:42;23.23;;;14.33;;
10293;SDS011;5192;50.328;7.610;2024-03-08T03:33:16;23.70;;;14.20;;
10293;SDS011;5192;50.328;7.610;2024-03-08T03:35:43;23.93;;;14.27;;
10293;SDS011;5192;50.328;7.610;2024-03-08T03:38:10;23.23;;;15.03;;
10293;SDS011;5192;50.328;7.610;2024-03-08T03:40:39;25.13;;;14.57;;
10293;SDS011;5192;50.328;7.610;2024-03-08T03:43:08;22.23;;;13.40;;
10293;SDS011;5192;50.328;7.610;2024-03-08T03:45:36;25.03;;;15.17;;
10293;SDS011;5192;50.328;7.610;2024-03-08T03:50:49;26.43;;;14.77;;
10293;SDS011;5192;50.328;7.610;2024-03-08T03:53:17;22.37;;;13.93;;
10293;SDS011;5192;50.328;7.610;2024-03-08T03:55:44;25.57;;;13.73;;
10293;SDS011;5192;50.328;7.610;2024-03-08T03:58:13;24.67;;;14.27;;
10293;SDS011;5192;50.328;7.610;2024-03-08T04:00:41;25.17;;;14.73;;
10293;SDS011;5192;50.328;7.610;2024-03-08T04:03:08;25.70;;;14.60;;
10293;SDS011;5192;50.328;7.610;2024-03-08T04:05:35;24.17;;;13.90;;
10293;SDS011;5192;50.328;7.610;2024-03-08T04:08:04;22.80;;;14.00;;
10293;SDS011;5192;50.328;7.610;2024-03-08T04:10:32;26.63;;;14.13;;
10293;SDS011;5192;50.328;7.610;2024-03-08T04:13:00;26.77;;;15.73;;
10293;SDS011;5192;50.328;7.610;2024-03-08T04:15:27;22.77;;;14.03;;
10293;SDS011;5192;50.328;7.610;2024-03-08T04:17:58;25.30;;;15.17;;
10293;SDS011;5192;50.328;7.610;2024-03-08T04:20:27;22.53;;;13.27;;
10293;SDS011;5192;50.328;7.610;2024-03-08T04:22:59;24.80;;;13.73;;
10293;SDS011;5192;50.328;7.610;2024-03-08T04:25:26;24.03;;;14.47;;
10293;SDS011;5192;50.328;7.610;2024-03-08T04:27:54;24.97;;;14.90;;
10293;SDS011;5192;50.328;7.610;2024-03-08T04:30:21;27.83;;;15.37;;
10293;SDS011;5192;50.328;7.610;2024-03-08T04:32:50;29.33;;;17.13;;
10293;SDS011;5192;50.328;7.610;2024-03-08T04:35:17;27.10;;;15.70;;
10293;SDS011;5192;50.328;7.610;2024-03-08T04:37:51;27.17;;;15.67;;
10293;SDS011;5192;50.328;7.610;2024-03-08T04:40:17;24.60;;;15.30;;
10293;SDS011;5192;50.328;7.610;2024-03-08T04:42:45;29.20;;;15.60;;
10293;SDS011;5192;50.328;7.610;2024-03-08T04:45:16;28.30;;;15.97;;
10293;SDS011;5192;50.328;7.610;2024-03-08T04:47:44;35.13;;;19.80;;
10293;SDS011;5192;50.328;7.610;2024-03-08T04:50:11;22.53;;;15.33;;
10293;SDS011;5192;50.328;7.610;2024-03-08T04:52:42;25.00;;;13.70;;
10293;SDS011;5192;50.328;7.610;2024-03-08T04:55:09;23.53;;;14.20;;
10293;SDS011;5192;50.328;7.610;2024-03-08T04:57:35;25.97;;;15.13;;
10293;SDS011;5192;50.328;7.610;2024-03-08T05:00:04;24.13;;;15.27;;
10293;SDS011;5192;50.328;7.610;2024-03-08T05:02:37;25.73;;;15.23;;
10293;SDS011;5192;50.328;7.610;2024-03-08T05:05:09;26.97;;;16.60;;
10293;SDS011;5192;50.328;7.610;2024-03-08T05:07:40;23.30;;;14.70;;
10293;SDS011;5192;50.328;7.610;2024-03-08T05:10:10;27.97;;;14.97;;
10293;SDS011;5192;50.328;7.610;2024-03-08T05:12:46;25.73;;;15.30;;
10293;SDS011;5192;50.328;7.610;2024-03-08T05:15:15;24.43;;;14.83;;
10293;SDS011;5192;50.328;7.610;2024-03-08T05:17:44;31.60;;;17.93;;
10293;SDS011;5192;50.328;7.610;2024-03-08T05:20:16;27.37;;;14.73;;
10293;SDS011;5192;50.328;7.610;2024-03-08T05:22:48;28.13;;;15.30;;
10293;SDS011;5192;50.328;7.610;2024-03-08T05:25:15;28.70;;;15.03;;
10293;SDS011;5192;50.328;7.610;2024-03-08T05:27:44;24.87;;;15.17;;
10293;SDS011;5192;50.328;7.610;2024-03-08T05:30:12;34.37;;;21.87;;
10293;SDS011;5192;50.328;7.610;2024-03-08T05:32:43;34.27;;;21.80;;
10293;SDS011;5192;50.328;7.610;2024-03-08T05:35:12;28.97;;;16.10;;
10293;SDS011;5192;50.328;7.610;2024-03-08T05:37:42;26.40;;;14.93;;
10293;SDS011;5192;50.328;7.610;2024-03-08T05:40:11;27.17;;;14.93;;
10293;SDS011;5192;50.328;7.610;2024-03-08T05:42:39;24.83;;;14.33;;
10293;SDS011;5192;50.328;7.610;2024-03-08T05:45:06;26.50;;;15.70;;
10293;SDS011;5192;50.328;7.610;2024-03-08T05:47:34;24.23;;;14.33;;
10293;SDS011;5192;50.328;7.610;2024-03-08T05:50:00;27.90;;;15.73;;
10293;SDS011;5192;50.328;7.610;2024-03-08T05:52:29;26.97;;;15.47;;
10293;SDS011;5192;50.328;7.610;2024-03-08T05:54:57;27.50;;;14.77;;
10293;SDS011;5192;50.328;7.610;2024-03-08T05:57:26;25.10;;;15.73;;
10293;SDS011;5192;50.328;7.610;2024-03-08T05:59:53;29.60;;;15.60;;
10293;SDS011;5192;50.328;7.610;2024-03-08T06:02:23;29.30;;;15.73;;
10293;SDS011;5192;50.328;7.610;2024-03-08T06:04:50;26.17;;;15.60;;
10293;SDS011;5192;50.328;7.610;2024-03-08T06:07:17;24.60;;;14.53;;
10293;SDS011;5192;50.328;7.610;2024-03-08T06:09:45;27.30;;;16.03;;
10293;SDS011;5192;50.328;7.610;2024-03-08T06:12:15;32.80;;;16.73;;
10293;SDS011;5192;50.328;7.610;2024-03-08T06:14:48;24.80;;;15.57;;
10293;SDS011;5192;50.328;7.610;2024-03-08T06:17:15;25.60;;;15.87;;
10293;SDS011;5192;50.328;7.610;2024-03-08T06:19:43;26.37;;;15.47;;
10293;SDS011;5192;50.328;7.610;2024-03-08T06:22:09;27.40;;;16.33;;
10293;SDS011;5192;50.328;7.610;2024-03-08T06:24:38;25.93;;;15.50;;
10293;SDS011;5192;50.328;7.610;2024-03-08T06:27:05;30.70;;;16.47;;
10293;SDS011;5192;50.328;7.610;2024-03-08T06:29:31;28.20;;;16.03;;
10293;SDS011;5192;50.328;7.610;2024-03-08T06:32:17;28.83;;;16.70;;
10293;SDS011;5192;50.328;7.610;2024-03-08T06:34:44;24.10;;;15.30;;
10293;SDS011;5192;50.328;7.610;2024-03-08T06:37:13;26.37;;;15.83;;
10293;SDS011;5192;50.328;7.610;2024-03-08T06:39:40;26.13;;;15.43;;
10293;SDS011;5192;50.328;7.610;2024-03-08T06:42:09;28.73;;;16.37;;
10293;SDS011;5192;50.328;7.610;2024-03-08T06:44:44;24.03;;;15.07;;
10293;SDS011;5192;50.328;7.610;2024-03-08T06:47:15;23.77;;;14.90;;
10293;SDS011;5192;50.328;7.610;2024-03-08T06:49:43;28.30;;;16.20;;
10293;SDS011;5192;50.328;7.610;2024-03-08T06:52:10;27.97;;;15.77;;
10293;SDS011;5192;50.328;7.610;2024-03-08T06:54:39;30.20;;;16.33;;
10293;SDS011;5192;50.328;7.610;2024-03-08T06:57:07;30.93;;;17.23;;
10293;SDS011;5192;50.328;7.610;2024-03-08T06:59:36;23.57;;;14.87;;
10293;SDS011;5192;50.328;7.610;2024-03-08T07:02:05;29.20;;;16.07;;
10293;SDS011;5192;50.328;7.610;2024-03-08T07:04:37;28.20;;;16.77;;
10293;SDS011;5192;50.328;7.610;2024-03-08T07:07:04;27.53;;;15.93;;
10293;SDS011;5192;50.328;7.610;2024-03-08T07:09:39;23.80;;;14.87;;
10293;SDS011;5192;50.328;7.610;2024-03-08T07:12:10;26.90;;;15.70;;
10293;SDS011;5192;50.328;7.610;2024-03-08T07:14:49;29.03;;;15.90;;
10293;SDS011;5192;50.328;7.610;2024-03-08T07:17:15;30.07;;;16.67;;
10293;SDS011;5192;50.328;7.610;2024-03-08T07:19:43;24.27;;;15.43;;
10293;SDS011;5192;50.328;7.610;2024-03-08T07:22:12;26.67;;;16.50;;
10293;SDS011;5192;50.328;7.610;2024-03-08T07:24:39;26.37;;;15.67;;
10293;SDS011;5192;50.328;7.610;2024-03-08T07:27:32;23.47;;;15.03;;
10293;SDS011;5192;50.328;7.610;2024-03-08T07:30:00;25.97;;;15.67;;
10293;SDS011;5192;50.328;7.610;2024-03-08T07:32:29;24.40;;;15.30;;
10293;SDS011;5192;50.328;7.610;2024-03-08T07:34:59;26.70;;;16.70;;
10293;SDS011;5192;50.328;7.610;2024-03-08T07:37:31;26.30;;;15.87;;
10293;SDS011;5192;50.328;7.610;2024-03-08T07:40:04;25.97;;;15.90;;
10293;SDS011;5192;50.328;7.610;2024-03-08T07:42:36;26.03;;;15.03;;
10293;SDS011;5192;50.328;7.610;2024-03-08T07:45:05;24.07;;;16.13;;
10293;SDS011;5192;50.328;7.610;2024-03-08T07:47:34;27.53;;;16.47;;
10293;SDS011;5192;50.328;7.610;2024-03-08T07:50:01;24.67;;;14.73;;
10293;SDS011;5192;50.328;7.610;2024-03-08T07:52:28;24.03;;;15.47;;
10293;SDS011;5192;50.328;7.610;2024-03-08T07:54:57;22.23;;;14.63;;
10293;SDS011;5192;50.328;7.610;2024-03-08T07:57:24;26.50;;;15.80;;
10293;SDS011;5192;50.328;7.610;2024-03-08T07:59:52;23.70;;;15.27;;
10293;SDS011;5192;50.328;7.610;2024-03-08T08:02:21;24.90;;;14.70;;
10293;SDS011;5192;50.328;7.610;2024-03-08T08:04:48;24.47;;;15.33;;
10293;SDS011;5192;50.328;7.610;2024-03-08T08:07:16;24.57;;;15.47;;
10293;SDS011;5192;50.328;7.610;2024-03-08T08:09:45;22.30;;;14.97;;
10293;SDS011;5192;50.328;7.610;2024-03-08T08:12:14;26.80;;;15.97;;
10293;SDS011;5192;50.328;7.610;2024-03-08T08:14:42;28.93;;;15.77;;
10293;SDS011;5192;50.328;7.610;2024-03-08T08:17:10;25.77;;;15.73;;
10293;SDS011;5192;50.328;7.610;2024-03-08T08:19:37;23.80;;;15.10;;
10293;SDS011;5192;50.328;7.610;2024-03-08T08:22:04;25.83;;;15.60;;
10293;SDS011;5192;50.328;7.610;2024-03-08T08:24:34;22.93;;;14.87;;
10293;SDS011;5192;50.328;7.610;2024-03-08T08:27:03;21.73;;;14.40;;
10293;SDS011;5192;50.328;7.610;2024-03-08T08:29:32;22.50;;;15.07;;
10293;SDS011;5192;50.328;7.610;2024-03-08T08:31:59;23.03;;;15.27;;
10293;SDS011;5192;50.328;7.610;2024-03-08T08:34:27;21.70;;;15.30;;
10293;SDS011;5192;50.328;7.610;2024-03-08T08:36:55;22.83;;;15.40;;
10293;SDS011;5192;50.328;7.610;2024-03-08T08:39:23;22.63;;;14.23;;
10293;SDS011;5192;50.328;7.610;2024-03-08T08:41:51;24.50;;;14.60;;
10293;SDS011;5192;50.328;7.610;2024-03-08T08:44:18;21.53;;;14.40;;
10293;SDS011;5192;50.328;7.610;2024-03-08T08:46:45;23.27;;;14.97;;
10293;SDS011;5192;50.328;7.610;2024-03-08T08:49:14;23.70;;;15.40;;
10293;SDS011;5192;50.328;7.610;2024-03-08T08:51:51;25.17;;;15.30;;
10293;SDS011;5192;50.328;7.610;2024-03-08T08:54:18;22.33;;;14.70;;
10293;SDS011;5192;50.328;7.610;2024-03-08T08:56:47;21.93;;;14.47;;
10293;SDS011;5192;50.328;7.610;2024-03-08T08:59:16;21.33;;;14.47;;
10293;SDS011;5192;50.328;7.610;2024-03-08T09:01:52;24.10;;;14.67;;
10293;SDS011;5192;50.328;7.610;2024-03-08T09:04:23;21.87;;;14.67;;
10293;SDS011;5192;50.328;7.610;2024-03-08T09:06:49;24.13;;;15.10;;
10293;SDS011;5192;50.328;7.610;2024-03-08T09:09:15;22.93;;;15.50;;
10293;SDS011;5192;50.328;7.610;2024-03-08T09:11:45;20.73;;;14.13;;
10293;SDS011;5192;50.328;7.610;2024-03-08T09:14:11;21.30;;;13.83;;
10293;SDS011;5192;50.328;7.610;2024-03-08T09:16:37;20.80;;;14.33;;
10293;SDS011;5192;50.328;7.610;2024-03-08T09:19:06;23.60;;;14.73;;
10293;SDS011;5192;50.328;7.610;2024-03-08T09:21:33;20.03;;;13.93;;
10293;SDS011;5192;50.328;7.610;2024-03-08T09:24:02;19.23;;;12.80;;
10293;SDS011;5192;50.328;7.610;2024-03-08T09:26:28;20.47;;;13.10;;
10293;SDS011;5192;50.328;7.610;2024-03-08T09:28:56;23.10;;;14.03;;
10293;SDS011;5192;50.328;7.610;2024-03-08T09:31:23;20.70;;;13.27;;
10293;SDS011;5192;50.328;7.610;2024-03-08T09:33:51;19.67;;;13.10;;
10293;SDS011;5192;50.328;7.610;2024-03-08T09:36:20;20.73;;;13.10;;
10293;SDS011;5192;50.328;7.610;2024-03-08T09:38:47;21.23;;;12.90;;
10293;SDS011;5192;50.328;7.610;2024-03-08T09:41:17;17.80;;;12.13;;
10293;SDS011;5192;50.328;7.610;2024-03-08T09:43:43;18.03;;;12.57;;
10293;SDS011;5192;50.328;7.610;2024-03-08T09:46:11;18.13;;;12.30;;
10293;SDS011;5192;50.328;7.610;2024-03-08T09:48:39;17.63;;;12.07;;
10293;SDS011;5192;50.328;7.610;2024-03-08T09:51:07;17.03;;;12.00;;
10293;SDS011;5192;50.328;7.610;2024-03-08T09:53:39;14.33;;;11.13;;
10293;SDS011;5192;50.328;7.610;2024-03-08T09:56:08;16.23;;;11.20;;
10293;SDS011;5192;50.328;7.610;2024-03-08T09:58:38;15.00;;;11.07;;
10293;SDS011;5192;50.328;7.610;2024-03-08T10:01:30;14.97;;;10.13;;
10293;SDS011;5192;50.328;7.610;2024-03-08T10:03:58;14.17;;;9.83;;
10293;SDS011;5192;50.328;7.610;2024-03-08T10:06:25;13.63;;;9.70;;
10293;SDS011;5192;50.328;7.610;2024-03-08T10:08:54;15.17;;;9.90;;
10293;SDS011;5192;50.328;7.610;2024-03-08T10:11:21;12.70;;;9.70;;
10293;SDS011;5192;50.328;7.610;2024-03-08T10:13:49;14.73;;;10.23;;
10293;SDS011;5192;50.328;7.610;2024-03-08T10:16:17;14.43;;;10.57;;
10293;SDS011;5192;50.328;7.610;2024-03-08T10:18:48;13.80;;;11.00;;
10293;SDS011;5192;50.328;7.610;2024-03-08T10:21:17;14.03;;;10.37;;
10293;SDS011;5192;50.328;7.610;2024-03-08T10:23:45;15.43;;;10.30;;
10293;SDS011;5192;50.328;7.610;2024-03-08T10:26:14;13.67;;;10.23;;
10293;SDS011;5192;50.328;7.610;2024-03-08T10:28:44;13.93;;;10.67;;
10293;SDS011;5192;50.328;7.610;2024-03-08T10:31:11;13.43;;;9.77;;
10293;SDS011;5192;50.328;7.610;2024-03-08T10:33:41;13.00;;;9.90;;
10293;SDS011;5192;50.328;7.610;2024-03-08T10:36:13;14.30;;;9.53;;
10293;SDS011;5192;50.328;7.610;2024-03-08T10:38:43;14.37;;;10.43;;
10293;SDS011;5192;50.328;7.610;2024-03-08T10:41:15;13.80;;;9.93;;
10293;SDS011;5192;50.328;7.610;2024-03-08T10:46:38;13.30;;;10.37;;
10293;SDS011;5192;50.328;7.610;2024-03-08T10:49:11;12.23;;;9.37;;
10293;SDS011;5192;50.328;7.610;2024-03-08T10:51:39;12.80;;;9.90;;
10293;SDS011;5192;50.328;7.610;2024-03-08T10:54:09;13.37;;;10.03;;
10293;SDS011;5192;50.328;7.610;2024-03-08T10:56:37;14.00;;;9.87;;
10293;SDS011;5192;50.328;7.610;2024-03-08T10:59:09;11.57;;;9.43;;
10293;SDS011;5192;50.328;7.610;2024-03-08T11:01:36;12.60;;;9.37;;
10293;SDS011;5192;50.328;7.610;2024-03-08T11:04:07;12.07;;;9.00;;
10293;SDS011;5192;50.328;7.610;2024-03-08T11:11:51;14.13;;;9.60;;
10293;SDS011;5192;50.328;7.610;2024-03-08T11:17:04;13.47;;;10.13;;
10293;SDS011;5192;50.328;7.610;2024-03-08T11:19:36;14.93;;;8.90;;
10293;SDS011;5192;50.328;7.610;2024-03-08T11:22:13;14.93;;;10.30;;
10293;SDS011;5192;50.328;7.610;2024-03-08T11:24:50;12.87;;;9.87;;
10293;SDS011;5192;50.328;7.610;2024-03-08T11:27:16;12.37;;;9.60;;
10293;SDS011;5192;50.328;7.610;2024-03-08T11:29:41;10.63;;;9.50;;
10293;SDS011;5192;50.328;7.610;2024-03-08T11:32:11;13.73;;;10.60;;
10293;SDS011;5192;50.328;7.610;2024-03-08T11:34:41;12.53;;;10.10;;
10293;SDS011;5192;50.328;7.610;2024-03-08T11:37:12;15.70;;;11.33;;
10293;SDS011;5192;50.328;7.610;2024-03-08T11:39:52;13.33;;;10.80;;
10293;SDS011;5192;50.328;7.610;2024-03-08T11:42:35;13.00;;;10.60;;
10293;SDS011;5192;50.328;7.610;2024-03-08T11:45:07;12.37;;;10.80;;
10293;SDS011;5192;50.328;7.610;2024-03-08T11:47:37;12.50;;;10.50;;
10293;SDS011;5192;50.328;7.610;2024-03-08T11:50:07;13.10;;;10.17;;
10293;SDS011;5192;50.328;7.610;2024-03-08T11:52:38;14.10;;;10.80;;
10293;SDS011;5192;50.328;7.610;2024-03-08T11:55:05;11.80;;;9.70;;
10293;SDS011;5192;50.328;7.610;2024-03-08T11:57:31;12.53;;;10.73;;
10293;SDS011;5192;50.328;7.610;2024-03-08T11:59:57;12.33;;;10.27;;
10293;SDS011;5192;50.328;7.610;2024-03-08T12:02:34;15.00;;;11.00;;
10293;SDS011;5192;50.328;7.610;2024-03-08T12:05:08;12.43;;;10.43;;
10293;SDS011;5192;50.328;7.610;2024-03-08T12:07:43;12.93;;;10.33;;
10293;SDS011;5192;50.328;7.610;2024-03-08T12:10:20;14.83;;;10.70;;
10293;SDS011;5192;50.328;7.610;2024-03-08T12:12:53;13.40;;;11.27;;
10293;SDS011;5192;50.328;7.610;2024-03-08T12:15:24;13.77;;;11.30;;
10293;SDS011;5192;50.328;7.610;2024-03-08T12:17:52;13.37;;;11.30;;
10293;SDS011;5192;50.328;7.610;2024-03-08T12:20:21;15.57;;;11.87;;
10293;SDS011;5192;50.328;7.610;2024-03-08T12:22:49;14.47;;;11.53;;
10293;SDS011;5192;50.328;7.610;2024-03-08T12:25:18;13.10;;;10.37;;
10293;SDS011;5192;50.328;7.610;2024-03-08T12:27:47;13.77;;;11.57;;
10293;SDS011;5192;50.328;7.610;2024-03-08T12:30:17;16.97;;;11.27;;
10293;SDS011;5192;50.328;7.610;2024-03-08T12:32:59;14.30;;;10.97;;
10293;SDS011;5192;50.328;7.610;2024-03-08T12:35:30;13.50;;;10.83;;
10293;SDS011;5192;50.328;7.610;2024-03-08T12:37:59;13.27;;;10.70;;
10293;SDS011;5192;50.328;7.610;2024-03-08T12:40:28;12.27;;;10.50;;
10293;SDS011;5192;50.328;7.610;2024-03-08T12:42:56;12.90;;;11.00;;
10293;SDS011;5192;50.328;7.610;2024-03-08T12:45:24;12.70;;;11.30;;
10293;SDS011;5192;50.328;7.610;2024-03-08T12:47:52;14.30;;;11.57;;
10293;SDS011;5192;50.328;7.610;2024-03-08T12:50:20;13.87;;;11.13;;
10293;SDS011;5192;50.328;7.610;2024-03-08T12:52:48;13.97;;;11.10;;
10293;SDS011;5192;50.328;7.610;2024-03-08T12:55:24;12.83;;;11.43;;
10293;SDS011;5192;50.328;7.610;2024-03-08T12:57:51;13.00;;;10.83;;
10293;SDS011;5192;50.328;7.610;2024-03-08T13:00:19;12.53;;;10.53;;
10293;SDS011;5192;50.328;7.610;2024-03-08T13:02:47;12.83;;;10.77;;
10293;SDS011;5192;50.328;7.610;2024-03-08T13:05:18;13.40;;;10.63;;
10293;SDS011;5192;50.328;7.610;2024-03-08T13:07:46;11.40;;;10.20;;
10293;SDS011;5192;50.328;7.610;2024-03-08T13:10:13;10.83;;;9.70;;
10293;SDS011;5192;50.328;7.610;2024-03-08T13:12:42;12.33;;;10.57;;
10293;SDS011;5192;50.328;7.610;2024-03-08T13:15:12;12.57;;;10.30;;
10293;SDS011;5192;50.328;7.610;2024-03-08T13:17:46;13.80;;;10.63;;
10293;SDS011;5192;50.328;7.610;2024-03-08T13:20:14;13.23;;;11.13;;
10293;SDS011;5192;50.328;7.610;2024-03-08T13:22:46;13.07;;;10.33;;
10293;SDS011;5192;50.328;7.610;2024-03-08T13:25:14;11.67;;;9.27;;
10293;SDS011;5192;50.328;7.610;2024-03-08T13:27:40;13.27;;;10.10;;
10293;SDS011;5192;50.328;7.610;2024-03-08T13:30:09;12.97;;;10.20;;
10293;SDS011;5192;50.328;7.610;2024-03-08T13:32:44;11.37;;;9.10;;
10293;SDS011;5192;50.328;7.610;2024-03-08T13:35:12;12.80;;;10.50;;
10293;SDS011;5192;50.328;7.610;2024-03-08T13:37:40;10.73;;;9.50;;
10293;SDS011;5192;50.328;7.610;2024-03-08T13:40:06;12.17;;;9.90;;
10293;SDS011;5192;50.328;7.610;2024-03-08T13:42:43;11.43;;;10.00;;
10293;SDS011;5192;50.328;7.610;2024-03-08T13:45:12;11.25;;;9.90;;
10293;SDS011;5192;50.328;7.610;2024-03-08T13:47:43;12.83;;;10.37;;
10293;SDS011;5192;50.328;7.610;2024-03-08T13:50:13;12.30;;;10.20;;
10293;SDS011;5192;50.328;7.610;2024-03-08T13:52:46;12.83;;;10.37;;
10293;SDS011;5192;50.328;7.610;2024-03-08T13:55:17;11.30;;;9.77;;
10293;SDS011;5192;50.328;7.610;2024-03-08T13:57:45;12.03;;;10.77;;
10293;SDS011;5192;50.328;7.610;2024-03-08T14:00:12;11.25;;;10.05;;
10293;SDS011;5192;50.328;7.610;2024-03-08T14:02:40;12.60;;;10.53;;
10293;SDS011;5192;50.328;7.610;2024-03-08T14:05:10;14.50;;;11.13;;
10293;SDS011;5192;50.328;7.610;2024-03-08T14:07:39;10.93;;;9.43;;
10293;SDS011;5192;50.328;7.610;2024-03-08T14:10:15;11.40;;;9.70;;
10293;SDS011;5192;50.328;7.610;2024-03-08T14:12:46;12.27;;;9.73;;
10293;SDS011;5192;50.328;7.610;2024-03-08T14:15:14;13.27;;;10.65;;
10293;SDS011;5192;50.328;7.610;2024-03-08T14:17:42;11.27;;;9.90;;
10293;SDS011;5192;50.328;7.610;2024-03-08T14:20:15;12.47;;;10.10;;
10293;SDS011;5192;50.328;7.610;2024-03-08T14:22:44;11.70;;;10.07;;
10293;SDS011;5192;50.328;7.610;2024-03-08T14:25:11;11.30;;;9.80;;
10293;SDS011;5192;50.328;7.610;2024-03-08T14:27:43;13.50;;;11.37;;
10293;SDS011;5192;50.328;7.610;2024-03-08T14:30:14;11.87;;;10.00;;
10293;SDS011;5192;50.328;7.610;2024-03-08T14:32:58;14.33;;;10.57;;
10293;SDS011;5192;50.328;7.610;2024-03-08T14:35:31;13.63;;;10.97;;
10293;SDS011;5192;50.328;7.610;2024-03-08T14:38:03;13.43;;;11.17;;
10293;SDS011;5192;50.328;7.610;2024-03-08T14:40:34;13.03;;;10.50;;
10293;SDS011;5192;50.328;7.610;2024-03-08T14:43:06;13.20;;;10.33;;
10293;SDS011;5192;50.328;7.610;2024-03-08T14:45:36;14.57;;;11.03;;
10293;SDS011;5192;50.328;7.610;2024-03-08T14:48:07;13.17;;;11.00;;
10293;SDS011;5192;50.328;7.610;2024-03-08T14:50:35;13.80;;;11.60;;
10293;SDS011;5192;50.328;7.610;2024-03-08T14:53:02;12.47;;;10.33;;
10293;SDS011;5192;50.328;7.610;2024-03-08T14:55:32;15.13;;;10.93;;
10293;SDS011;5192;50.328;7.610;2024-03-08T14:58:04;13.53;;;10.70;;
10293;SDS011;5192;50.328;7.610;2024-03-08T15:00:33;13.77;;;10.83;;
10293;SDS011;5192;50.328;7.610;2024-03-08T15:03:01;13.97;;;11.10;;